Kimbolton, Ohio
Current Conditions -  °F | °C
As of 12:53 PM on Sunday 23 Nov 2014 (Local Time) from KZZV Reporting Station
Broken Clouds Broken Clouds  
Wind Chill: 62°   Ceiling: 4500
Heat Index: 62°   Visibility: 10mi
Dew Point: 37°   Wind: 8mph
Humidity: 39%   Direction: 150°SSE
Pressure: 29.92"   Gusts: NA
Location:  40.15°N, 81.57°W
Report Text: KZZV 231753Z AUTO 15007KT 10SM BKN045 17/03 A2992 RMK AO2 SLP129 T01670028 10167 20050 58040
Loading
Personal Weather Stations






























Interactive Weather Map New forecast layout! Learn more

10-Day Weather Forecast

Advertisements
Track Severe Weather on mobile